createdAt,value
2023-03-06T00:00:31.308Z,2.54
2023-03-06T00:02:57.845Z,2.39
2023-03-06T00:05:27.341Z,2.53
2023-03-06T00:07:53.921Z,2.52
2023-03-06T00:10:22.013Z,2.46
2023-03-06T00:12:48.899Z,2.39
2023-03-06T00:15:15.410Z,2.32
2023-03-06T00:17:41.945Z,2.32
2023-03-06T00:20:08.962Z,2.36
2023-03-06T00:22:35.546Z,2.34
2023-03-06T00:25:02.090Z,2.32
2023-03-06T00:27:28.589Z,2.30
2023-03-06T00:29:56.067Z,2.31
2023-03-06T00:32:22.749Z,2.25
2023-03-06T00:34:50.157Z,2.22
2023-03-06T00:37:16.695Z,2.22
2023-03-06T00:39:43.189Z,2.23
2023-03-06T00:42:09.721Z,2.23
2023-03-06T00:44:36.278Z,2.18
2023-03-06T00:47:02.858Z,2.13
2023-03-06T00:49:29.344Z,2.14
2023-03-06T00:51:55.914Z,2.13
2023-03-06T00:54:22.404Z,2.13
2023-03-06T00:56:48.880Z,2.17
2023-03-06T00:59:15.424Z,2.21
2023-03-06T01:01:42.081Z,2.22
2023-03-06T01:04:08.590Z,2.24
2023-03-06T01:06:35.115Z,2.26
2023-03-06T01:09:01.786Z,2.25
2023-03-06T01:11:28.386Z,2.24
2023-03-06T01:13:54.901Z,2.25
2023-03-06T01:16:21.624Z,2.25
2023-03-06T01:18:48.818Z,2.22
2023-03-06T01:21:15.417Z,2.12
2023-03-06T01:23:42.270Z,2.10
2023-03-06T01:26:10.029Z,2.13
2023-03-06T01:28:37.564Z,2.12
2023-03-06T01:31:04.177Z,2.10
2023-03-06T01:33:30.789Z,2.12
2023-03-06T01:35:57.362Z,2.13
2023-03-06T01:38:24.045Z,2.12
2023-03-06T01:40:50.580Z,2.13
2023-03-06T01:43:26.725Z,2.14
2023-03-06T01:46:12.191Z,2.15
2023-03-06T01:52:12.653Z,2.09
2023-03-06T01:54:43.455Z,2.11
2023-03-06T01:57:13.042Z,2.08
2023-03-06T01:59:41.034Z,2.06
2023-03-06T02:02:08.881Z,2.00
2023-03-06T02:04:36.973Z,1.94
2023-03-06T02:07:06.433Z,1.91
2023-03-06T02:09:34.815Z,1.90
2023-03-06T02:12:02.186Z,1.88
2023-03-06T02:14:29.414Z,1.89
2023-03-06T02:16:56.005Z,1.90
2023-03-06T02:19:47.025Z,1.91
2023-03-06T02:22:13.579Z,1.93
2023-03-06T02:24:42.861Z,1.89
2023-03-06T02:29:49.316Z,1.85
2023-03-06T02:32:15.901Z,1.78
2023-03-06T02:34:42.397Z,1.78
2023-03-06T02:37:10.093Z,1.82
2023-03-06T02:39:39.791Z,1.87
2023-03-06T02:42:06.347Z,1.89
2023-03-06T02:44:34.362Z,1.87
2023-03-06T02:47:00.938Z,1.85
2023-03-06T02:49:27.502Z,1.82
2023-03-06T02:51:54.007Z,1.83
2023-03-06T02:54:20.575Z,1.87
2023-03-06T02:56:47.089Z,1.90
2023-03-06T02:59:13.622Z,1.90
2023-03-06T03:01:40.211Z,1.95
2023-03-06T03:04:06.793Z,1.95
2023-03-06T03:06:33.566Z,1.90
2023-03-06T03:10:55.862Z,1.89
2023-03-06T03:13:22.427Z,1.87
2023-03-06T03:16:02.776Z,1.82
2023-03-06T03:18:29.434Z,1.75
2023-03-06T03:20:55.932Z,1.75
2023-03-06T03:23:22.520Z,1.76
2023-03-06T03:25:49.272Z,1.77
2023-03-06T03:28:16.214Z,1.70
2023-03-06T03:30:42.824Z,1.70
2023-03-06T03:33:09.569Z,1.70
2023-03-06T03:36:10.044Z,1.70
2023-03-06T03:38:36.557Z,1.74
2023-03-06T03:41:03.881Z,1.70
2023-03-06T03:43:30.439Z,1.68
2023-03-06T03:45:56.959Z,1.69
2023-03-06T03:48:23.453Z,1.70
2023-03-06T03:53:26.671Z,1.66
2023-03-06T03:55:53.182Z,1.62
2023-03-06T03:58:19.670Z,1.67
2023-03-06T04:00:47.228Z,1.65
2023-03-06T04:03:13.802Z,1.62
2023-03-06T04:05:40.377Z,1.60
2023-03-06T04:08:07.770Z,1.61
2023-03-06T04:10:34.532Z,1.61
2023-03-06T04:13:01.067Z,1.59
2023-03-06T04:15:27.588Z,1.58
2023-03-06T04:17:54.132Z,1.57
2023-03-06T04:20:20.793Z,1.60
2023-03-06T04:22:47.411Z,1.54
2023-03-06T04:25:13.946Z,1.47
2023-03-06T04:27:40.529Z,1.41
2023-03-06T04:30:07.366Z,1.39
2023-03-06T04:32:33.986Z,1.44
2023-03-06T04:35:00.482Z,1.48
2023-03-06T04:37:27.090Z,1.54
2023-03-06T04:39:53.619Z,1.48
2023-03-06T04:42:20.205Z,1.37
2023-03-06T04:44:46.737Z,1.33
2023-03-06T04:47:13.407Z,1.40
2023-03-06T04:49:39.962Z,1.44
2023-03-06T04:52:06.625Z,1.49
2023-03-06T04:54:33.222Z,1.47
2023-03-06T04:56:59.797Z,1.45
2023-03-06T04:59:26.344Z,1.39
2023-03-06T05:02:24.270Z,1.37
2023-03-06T05:04:50.806Z,1.41
2023-03-06T05:07:17.415Z,1.40
2023-03-06T05:09:43.961Z,1.41
2023-03-06T05:12:10.580Z,1.42
2023-03-06T05:14:37.121Z,1.42
2023-03-06T05:17:03.634Z,1.47
2023-03-06T05:19:30.135Z,1.46
2023-03-06T05:21:56.698Z,1.40
2023-03-06T05:24:23.293Z,1.32
2023-03-06T05:26:49.781Z,1.28
2023-03-06T05:29:16.336Z,1.28
2023-03-06T05:31:42.877Z,1.33
2023-03-06T05:34:12.762Z,1.36
2023-03-06T05:36:39.355Z,1.37
2023-03-06T05:39:06.477Z,1.33
2023-03-06T05:41:32.994Z,1.30
2023-03-06T05:43:59.505Z,1.28
2023-03-06T05:46:26.076Z,1.29
2023-03-06T05:48:55.381Z,1.32
2023-03-06T05:51:21.938Z,1.33
2023-03-06T05:53:48.453Z,1.33
2023-03-06T05:56:15.245Z,1.32
2023-03-06T05:58:42.250Z,1.29
2023-03-06T06:01:19.248Z,1.33
2023-03-06T06:03:46.434Z,1.36
2023-03-06T06:06:13.998Z,1.38
2023-03-06T06:08:40.590Z,1.35
2023-03-06T06:11:10.902Z,1.30
2023-03-06T06:13:48.540Z,1.29
2023-03-06T06:16:16.530Z,1.28
2023-03-06T06:18:43.383Z,1.29
2023-03-06T06:21:11.253Z,1.32
2023-03-06T06:23:37.765Z,1.39
2023-03-06T06:26:05.630Z,1.47
2023-03-06T06:28:33.457Z,1.50
2023-03-06T06:31:00.307Z,1.51
2023-03-06T06:33:27.124Z,1.57
2023-03-06T06:35:53.718Z,1.57
2023-03-06T06:38:20.310Z,1.56
2023-03-06T06:41:04.317Z,1.50
2023-03-06T06:43:33.312Z,1.52
2023-03-06T06:46:24.272Z,1.56
2023-03-06T06:48:49.874Z,1.64
2023-03-06T06:51:16.933Z,1.74
2023-03-06T06:53:44.640Z,1.77
2023-03-06T06:56:11.218Z,1.74
2023-03-06T06:58:37.765Z,1.77
2023-03-06T07:01:05.428Z,1.88
2023-03-06T07:03:31.986Z,1.85
2023-03-06T07:07:38.478Z,1.79
2023-03-06T07:10:07.106Z,1.79
2023-03-06T07:12:35.207Z,1.83
2023-03-06T07:16:09.464Z,1.87
2023-03-06T07:18:36.021Z,2.05
2023-03-06T07:21:02.571Z,2.03
2023-03-06T07:26:08.422Z,1.89
2023-03-06T07:28:49.817Z,2.07
2023-03-06T07:31:18.666Z,1.96
2023-03-06T07:33:45.543Z,2.01
2023-03-06T07:36:13.784Z,2.02
2023-03-06T07:38:40.696Z,2.12
2023-03-06T07:41:13.256Z,2.22
2023-03-06T07:43:42.461Z,2.20
2023-03-06T07:46:09.428Z,2.21
2023-03-06T07:48:36.805Z,2.24
2023-03-06T07:51:07.941Z,2.24
2023-03-06T07:53:35.118Z,2.31
2023-03-06T07:56:08.553Z,2.35
2023-03-06T07:58:36.049Z,2.35
2023-03-06T08:01:06.690Z,2.28
2023-03-06T08:03:33.538Z,2.29
2023-03-06T08:08:53.255Z,2.44
2023-03-06T08:14:00.274Z,2.48
2023-03-06T08:16:28.212Z,2.53
2023-03-06T08:18:55.171Z,2.62
2023-03-06T08:21:25.852Z,2.50
2023-03-06T08:23:52.780Z,2.56
2023-03-06T08:26:21.187Z,2.58
2023-03-06T08:28:47.762Z,2.64
2023-03-06T08:31:21.485Z,2.54
2023-03-06T08:33:48.197Z,2.49
2023-03-06T08:36:14.790Z,2.66
2023-03-06T08:38:41.320Z,2.65
2023-03-06T08:41:07.905Z,2.83
2023-03-06T08:43:35.902Z,2.83
2023-03-06T08:46:02.793Z,2.77
2023-03-06T08:48:29.400Z,2.84
2023-03-06T08:53:04.930Z,3.05
2023-03-06T08:55:31.389Z,3.10
2023-03-06T08:57:58.740Z,3.13
2023-03-06T09:02:40.025Z,3.10
2023-03-06T09:07:47.541Z,3.27
2023-03-06T09:10:18.201Z,3.33
2023-03-06T09:12:50.116Z,3.35
2023-03-06T09:15:18.252Z,3.45
2023-03-06T09:17:44.901Z,3.57
2023-03-06T09:20:29.680Z,3.93
2023-03-06T09:22:56.352Z,4.02
2023-03-06T09:25:23.369Z,4.09
2023-03-06T09:28:01.859Z,4.28
2023-03-06T09:30:35.420Z,4.31
2023-03-06T09:33:01.989Z,4.31
2023-03-06T09:35:28.525Z,4.45
2023-03-06T09:37:55.012Z,4.46
2023-03-06T09:40:41.781Z,4.75
2023-03-06T09:43:17.680Z,4.86
2023-03-06T09:45:44.589Z,5.01
2023-03-06T09:48:13.930Z,5.11
2023-03-06T09:50:50.962Z,5.09
2023-03-06T09:53:20.183Z,5.05
2023-03-06T09:55:51.175Z,5.11
2023-03-06T09:58:21.030Z,4.54
2023-03-06T10:00:53.437Z,4.87
2023-03-06T10:03:19.942Z,5.25
2023-03-06T10:05:53.405Z,4.93
2023-03-06T10:08:35.441Z,4.94
2023-03-06T10:11:03.806Z,4.99
2023-03-06T10:13:43.204Z,5.16
2023-03-06T10:16:25.447Z,5.21
2023-03-06T10:18:52.897Z,5.43
2023-03-06T10:21:19.674Z,5.52
2023-03-06T10:24:09.420Z,5.49
2023-03-06T10:26:40.099Z,5.72
2023-03-06T10:29:19.807Z,5.69
2023-03-06T10:31:50.327Z,5.77
2023-03-06T10:36:17.228Z,5.70
2023-03-06T10:38:44.807Z,5.46
2023-03-06T10:41:11.315Z,5.27
2023-03-06T10:43:41.871Z,5.49
2023-03-06T10:46:10.016Z,5.18
2023-03-06T10:48:39.346Z,5.29
2023-03-06T10:51:18.016Z,5.47
2023-03-06T10:54:07.718Z,5.58
2023-03-06T10:56:39.213Z,5.81
2023-03-06T10:59:13.555Z,5.67
2023-03-06T11:01:41.077Z,5.57
2023-03-06T11:04:27.948Z,5.65
2023-03-06T11:07:06.879Z,5.56
2023-03-06T11:09:33.888Z,5.68
2023-03-06T11:12:19.024Z,5.72
2023-03-06T11:14:45.569Z,5.55
2023-03-06T11:17:32.184Z,5.76
2023-03-06T11:20:30.318Z,5.59
2023-03-06T11:23:00.158Z,5.52
2023-03-06T11:25:29.982Z,5.61
2023-03-06T11:27:59.462Z,5.65
2023-03-06T11:31:32.424Z,5.60
2023-03-06T11:34:04.433Z,5.74
2023-03-06T11:36:33.836Z,5.74
2023-03-06T11:39:04.620Z,5.74
2023-03-06T11:41:31.124Z,5.97
2023-03-06T11:44:15.423Z,6.06
2023-03-06T11:46:48.751Z,5.87
2023-03-06T11:49:15.597Z,5.69
2023-03-06T11:51:44.965Z,5.81
2023-03-06T11:54:13.286Z,5.86
2023-03-06T11:56:45.529Z,5.80
2023-03-06T11:59:14.790Z,5.88
2023-03-06T12:01:44.308Z,5.86
2023-03-06T12:04:13.666Z,6.07
2023-03-06T12:06:46.041Z,6.04
2023-03-06T12:09:12.803Z,6.11
2023-03-06T12:11:51.374Z,6.35
2023-03-06T12:14:32.670Z,6.04
2023-03-06T12:17:06.965Z,6.19
2023-03-06T12:19:45.631Z,6.12
2023-03-06T12:22:14.906Z,6.23
2023-03-06T12:24:50.507Z,6.33
2023-03-06T12:27:27.377Z,6.41
2023-03-06T12:29:56.867Z,6.55
2023-03-06T12:32:58.888Z,6.51
2023-03-06T12:35:25.440Z,6.58
2023-03-06T12:38:18.051Z,6.58
2023-03-06T12:40:57.336Z,6.40
2023-03-06T12:43:23.820Z,6.36
2023-03-06T12:45:55.746Z,5.98
2023-03-06T12:48:24.582Z,6.11
2023-03-06T12:50:51.662Z,6.26
2023-03-06T12:53:26.260Z,6.51
2023-03-06T12:55:53.515Z,6.51
2023-03-06T12:58:46.560Z,6.39
2023-03-06T13:01:31.992Z,6.27
2023-03-06T13:04:17.090Z,6.13
2023-03-06T13:06:50.724Z,6.02
2023-03-06T13:09:19.414Z,6.08
2023-03-06T13:12:05.494Z,6.14
2023-03-06T13:14:42.398Z,6.09
2023-03-06T13:17:20.714Z,5.85
2023-03-06T13:19:48.070Z,6.02
2023-03-06T13:22:25.452Z,6.03
2023-03-06T13:25:11.907Z,6.10
2023-03-06T13:29:30.744Z,6.14
2023-03-06T13:31:58.102Z,6.18
2023-03-06T13:34:33.786Z,6.13
2023-03-06T13:37:18.644Z,5.97
2023-03-06T13:39:54.225Z,6.05
2023-03-06T13:42:31.188Z,6.11
2023-03-06T13:44:58.621Z,6.15
2023-03-06T13:47:39.721Z,6.16
2023-03-06T13:50:25.066Z,6.15
2023-03-06T13:52:57.568Z,6.13
2023-03-06T13:55:30.680Z,5.94
2023-03-06T13:58:10.431Z,6.01
2023-03-06T14:00:37.146Z,6.14
2023-03-06T14:03:06.662Z,6.09
2023-03-06T14:05:41.409Z,6.06
2023-03-06T14:08:13.947Z,6.00
2023-03-06T14:10:40.798Z,6.05
2023-03-06T14:13:32.345Z,6.00
2023-03-06T14:16:11.164Z,5.99
2023-03-06T14:18:40.048Z,5.92
2023-03-06T14:21:49.746Z,5.83
2023-03-06T14:24:18.029Z,5.79
2023-03-06T14:26:49.127Z,5.73
2023-03-06T14:29:19.917Z,5.83
2023-03-06T14:31:48.682Z,5.86
2023-03-06T14:34:20.498Z,5.72
2023-03-06T14:36:48.955Z,5.67
2023-03-06T14:42:18.504Z,5.86
2023-03-06T14:44:45.778Z,5.90
2023-03-06T14:47:18.451Z,5.95
2023-03-06T14:49:44.968Z,5.84
2023-03-06T14:52:16.913Z,5.78
2023-03-06T15:06:24.213Z,5.71
2023-03-06T15:09:02.719Z,5.63
2023-03-06T15:11:49.485Z,5.57
2023-03-06T15:14:20.772Z,5.68
2023-03-06T15:16:47.299Z,5.61
2023-03-06T15:19:20.847Z,5.65
2023-03-06T15:21:51.923Z,5.56
2023-03-06T15:24:32.187Z,5.47
2023-03-06T15:27:00.791Z,5.51
2023-03-06T15:29:27.552Z,5.54
2023-03-06T15:32:12.196Z,5.55
2023-03-06T15:34:38.826Z,5.55
2023-03-06T15:37:19.199Z,5.53
2023-03-06T15:39:46.646Z,5.47
2023-03-06T15:42:16.276Z,5.43
2023-03-06T15:44:42.896Z,5.42
2023-03-06T15:47:11.465Z,5.42
2023-03-06T15:49:38.792Z,5.46
2023-03-06T15:52:06.113Z,5.43
2023-03-06T15:54:33.162Z,5.44
2023-03-06T15:57:00.052Z,5.38
2023-03-06T15:59:30.762Z,5.39
2023-03-06T16:01:57.457Z,5.33
2023-03-06T16:04:24.073Z,5.28
2023-03-06T16:06:50.596Z,5.23
2023-03-06T16:09:17.169Z,5.23
2023-03-06T16:11:44.948Z,5.25
2023-03-06T16:14:20.157Z,5.24
2023-03-06T16:16:47.211Z,5.24
2023-03-06T16:19:25.372Z,5.19
2023-03-06T16:21:52.751Z,5.15
2023-03-06T16:24:19.354Z,5.15
2023-03-06T16:26:47.529Z,5.11
2023-03-06T16:29:21.869Z,5.10
2023-03-06T16:31:48.615Z,5.10
2023-03-06T16:34:15.362Z,5.08
2023-03-06T16:36:41.960Z,5.06
2023-03-06T16:39:19.142Z,5.03
2023-03-06T16:41:45.997Z,4.99
2023-03-06T16:44:12.999Z,4.96
2023-03-06T16:46:41.596Z,4.91
2023-03-06T16:49:10.002Z,4.81
2023-03-06T16:51:39.260Z,4.64
2023-03-06T16:54:05.925Z,4.62
2023-03-06T16:56:32.447Z,4.62
2023-03-06T16:58:58.962Z,4.64
2023-03-06T17:01:25.520Z,4.64
2023-03-06T17:03:52.078Z,4.60
2023-03-06T17:06:22.326Z,4.60
2023-03-06T17:08:49.853Z,4.56
2023-03-06T17:11:17.028Z,4.53
2023-03-06T17:13:43.672Z,4.47
2023-03-06T17:16:12.532Z,4.45
2023-03-06T17:18:39.057Z,4.44
2023-03-06T17:21:05.684Z,4.39
2023-03-06T17:23:32.257Z,4.33
2023-03-06T17:26:02.794Z,4.33
2023-03-06T17:28:29.434Z,4.32
2023-03-06T17:30:55.975Z,4.28
2023-03-06T17:33:22.748Z,4.17
2023-03-06T17:35:49.321Z,3.95
2023-03-06T17:38:15.828Z,3.77
2023-03-06T17:40:42.350Z,3.76
2023-03-06T17:43:08.947Z,3.78
2023-03-06T17:45:36.360Z,3.76
2023-03-06T17:48:02.927Z,3.77
2023-03-06T17:50:29.519Z,3.75
2023-03-06T17:52:56.028Z,3.53
2023-03-06T17:55:22.658Z,3.50
2023-03-06T17:57:51.648Z,3.43
2023-03-06T18:00:18.530Z,3.36
2023-03-06T18:02:45.442Z,3.31
2023-03-06T18:05:12.027Z,3.22
2023-03-06T18:07:39.217Z,3.18
2023-03-06T18:10:06.106Z,3.15
2023-03-06T18:12:32.666Z,3.13
2023-03-06T18:14:59.167Z,3.08
2023-03-06T18:17:25.774Z,3.05
2023-03-06T18:19:52.370Z,3.03
2023-03-06T18:22:18.931Z,3.01
2023-03-06T18:24:45.502Z,2.97
2023-03-06T18:27:12.103Z,2.88
2023-03-06T18:28:34.913Z,2.85
2023-03-06T18:31:02.252Z,2.82
2023-03-06T18:33:28.854Z,2.78
2023-03-06T18:35:55.422Z,2.74
2023-03-06T18:38:22.012Z,2.70
2023-03-06T18:40:48.573Z,2.70
2023-03-06T18:43:15.120Z,2.68
2023-03-06T18:45:44.341Z,2.71
2023-03-06T18:48:11.013Z,2.69
2023-03-06T18:50:37.505Z,2.66
2023-03-06T18:53:04.135Z,2.61
2023-03-06T18:55:30.672Z,2.60
2023-03-06T18:57:57.164Z,2.57
2023-03-06T19:00:23.854Z,2.55
2023-03-06T19:05:30.314Z,2.54
2023-03-06T19:07:57.642Z,2.57
2023-03-06T19:10:24.187Z,2.55
2023-03-06T19:12:50.725Z,2.54
2023-03-06T19:15:17.231Z,2.57
2023-03-06T19:17:43.836Z,2.52
2023-03-06T19:20:10.728Z,2.53
2023-03-06T19:22:37.509Z,2.56
2023-03-06T19:25:04.211Z,2.56
2023-03-06T19:27:31.537Z,2.55
2023-03-06T19:29:58.119Z,2.61
2023-03-06T19:32:25.191Z,2.57
2023-03-06T19:34:52.026Z,2.58
2023-03-06T19:37:18.772Z,2.56
2023-03-06T19:39:45.311Z,2.55
2023-03-06T19:42:13.772Z,2.59
2023-03-06T19:44:40.514Z,2.55
2023-03-06T19:47:07.242Z,2.55
2023-03-06T19:49:34.740Z,2.58
2023-03-06T19:52:01.272Z,2.56
2023-03-06T19:54:28.010Z,2.53
2023-03-06T19:56:54.555Z,2.52
2023-03-06T19:59:21.080Z,2.51
2023-03-06T20:01:47.617Z,2.46
2023-03-06T20:04:14.310Z,2.47
2023-03-06T20:06:40.820Z,2.50
2023-03-06T20:09:08.608Z,2.47
2023-03-06T20:11:35.416Z,2.44
2023-03-06T20:14:02.943Z,2.44
2023-03-06T20:16:30.100Z,2.44
2023-03-06T20:18:58.925Z,2.45
2023-03-06T20:21:26.168Z,2.44
2023-03-06T20:23:58.196Z,2.47
2023-03-06T20:26:25.780Z,2.45
2023-03-06T20:28:52.316Z,2.45
2023-03-06T20:31:19.866Z,2.49
2023-03-06T20:33:47.308Z,2.47
2023-03-06T20:36:15.009Z,2.49
2023-03-06T20:38:41.646Z,2.48
2023-03-06T20:41:13.385Z,2.48
2023-03-06T20:46:19.571Z,2.46
2023-03-06T20:48:47.843Z,2.46
2023-03-06T20:51:18.882Z,2.43
2023-03-06T20:53:49.190Z,2.42
2023-03-06T20:56:17.410Z,2.39
2023-03-06T20:58:44.432Z,2.41
2023-03-06T21:01:23.096Z,2.45
2023-03-06T21:03:49.827Z,2.46
2023-03-06T21:06:16.657Z,2.46
2023-03-06T21:08:43.456Z,2.44
2023-03-06T21:11:10.136Z,2.42
2023-03-06T21:13:36.771Z,2.38
2023-03-06T21:16:04.132Z,2.25
2023-03-06T21:18:30.689Z,2.24
2023-03-06T21:20:57.221Z,2.27
2023-03-06T21:23:23.726Z,2.28
2023-03-06T21:25:51.442Z,2.27
2023-03-06T21:30:30.679Z,2.26
2023-03-06T21:32:57.193Z,2.26
2023-03-06T21:35:23.790Z,2.22
2023-03-06T21:37:50.335Z,2.23
2023-03-06T21:40:16.887Z,2.24
2023-03-06T21:42:43.493Z,2.24
2023-03-06T21:45:10.363Z,2.22
2023-03-06T21:47:38.880Z,2.18
2023-03-06T21:50:06.775Z,2.18
2023-03-06T21:52:33.333Z,2.17
2023-03-06T21:54:59.997Z,2.16
2023-03-06T21:57:26.572Z,2.15
2023-03-06T21:59:53.078Z,2.16
2023-03-06T22:02:19.626Z,2.13
2023-03-06T22:04:50.146Z,2.14
2023-03-06T22:07:16.801Z,2.10
2023-03-06T22:09:43.328Z,2.07
2023-03-06T22:12:09.906Z,2.06
2023-03-06T22:14:36.486Z,2.06
2023-03-06T22:17:03.053Z,2.03
2023-03-06T22:19:29.924Z,2.01
2023-03-06T22:21:56.411Z,2.01
2023-03-06T22:24:23.018Z,2.02
2023-03-06T22:26:49.524Z,2.06
2023-03-06T22:29:16.061Z,2.04
2023-03-06T22:33:11.218Z,2.04
2023-03-06T22:35:37.726Z,2.01
2023-03-06T22:38:04.637Z,1.98
2023-03-06T22:40:31.457Z,1.95
2023-03-06T22:42:58.027Z,1.93
2023-03-06T22:45:24.654Z,1.96
2023-03-06T22:47:55.168Z,1.95
2023-03-06T22:50:23.976Z,1.95
2023-03-06T22:52:50.534Z,1.93
2023-03-06T22:55:17.130Z,1.91
2023-03-06T22:57:44.026Z,1.84
2023-03-06T23:00:11.188Z,1.87
2023-03-06T23:02:38.665Z,1.89
2023-03-06T23:05:05.262Z,1.92
2023-03-06T23:07:31.821Z,1.95
2023-03-06T23:09:58.362Z,1.91
2023-03-06T23:12:24.923Z,1.88
2023-03-06T23:14:51.599Z,1.86
2023-03-06T23:17:18.495Z,1.88
2023-03-06T23:19:45.293Z,1.89
2023-03-06T23:22:12.386Z,1.90
2023-03-06T23:24:38.921Z,1.87
2023-03-06T23:27:05.451Z,1.84
2023-03-06T23:29:31.960Z,1.85
2023-03-06T23:31:58.462Z,1.81
2023-03-06T23:34:25.076Z,1.80
2023-03-06T23:36:51.568Z,1.82
2023-03-06T23:39:18.089Z,1.77
2023-03-06T23:42:01.430Z,1.79
2023-03-06T23:44:28.113Z,1.80
2023-03-06T23:46:54.612Z,1.83
2023-03-06T23:51:15.926Z,1.88
2023-03-06T23:53:43.043Z,1.97
2023-03-06T23:56:09.964Z,1.94
